sensor_id;sensor_type;location;lat;lon;timestamp;pressure;altitude;pressure_sealevel;temperature;humidity
13367;BME280;6752;52.612;13.630;2023-11-21T00:04:45;100206.41;;;7.48;100.00
13367;BME280;6752;52.612;13.630;2023-11-21T00:09:47;100197.13;;;7.49;100.00
13367;BME280;6752;52.612;13.630;2023-11-21T00:14:50;100212.19;;;7.26;100.00
13367;BME280;6752;52.612;13.630;2023-11-21T00:19:52;100217.73;;;7.15;100.00
13367;BME280;6752;52.612;13.630;2023-11-21T00:24:54;100220.34;;;7.12;100.00
13367;BME280;6752;52.612;13.630;2023-11-21T00:29:57;100218.05;;;6.99;100.00
13367;BME280;6752;52.612;13.630;2023-11-21T00:34:59;100226.28;;;6.89;100.00
13367;BME280;6752;52.612;13.630;2023-11-21T00:40:02;100231.39;;;6.91;100.00
13367;BME280;6752;52.612;13.630;2023-11-21T00:45:04;100237.02;;;6.86;100.00
13367;BME280;6752;52.612;13.630;2023-11-21T00:50:06;100239.48;;;6.84;100.00
13367;BME280;6752;52.612;13.630;2023-11-21T00:55:09;100239.59;;;6.80;100.00
13367;BME280;6752;52.612;13.630;2023-11-21T01:00:11;100242.94;;;6.72;100.00
13367;BME280;6752;52.612;13.630;2023-11-21T01:05:16;100243.94;;;6.61;100.00
13367;BME280;6752;52.612;13.630;2023-11-21T01:10:18;100245.08;;;6.50;100.00
13367;BME280;6752;52.612;13.630;2023-11-21T01:15:21;100260.69;;;6.48;100.00
13367;BME280;6752;52.612;13.630;2023-11-21T01:20:23;100273.39;;;6.44;100.00
13367;BME280;6752;52.612;13.630;2023-11-21T01:25:25;100275.26;;;6.40;100.00
13367;BME280;6752;52.612;13.630;2023-11-21T01:30:28;100283.39;;;6.47;100.00
13367;BME280;6752;52.612;13.630;2023-11-21T01:35:30;100292.28;;;6.31;100.00
13367;BME280;6752;52.612;13.630;2023-11-21T01:40:33;100292.06;;;6.29;100.00
13367;BME280;6752;52.612;13.630;2023-11-21T01:45:35;100292.28;;;6.34;100.00
13367;BME280;6752;52.612;13.630;2023-11-21T01:50:37;100297.89;;;6.26;100.00
13367;BME280;6752;52.612;13.630;2023-11-21T01:55:40;100298.00;;;6.28;100.00
13367;BME280;6752;52.612;13.630;2023-11-21T02:00:42;100301.42;;;6.23;100.00
13367;BME280;6752;52.612;13.630;2023-11-21T02:05:44;100304.88;;;6.10;100.00
13367;BME280;6752;52.612;13.630;2023-11-21T02:10:47;100310.99;;;6.02;100.00
13367;BME280;6752;52.612;13.630;2023-11-21T02:15:49;100308.98;;;5.93;100.00
13367;BME280;6752;52.612;13.630;2023-11-21T02:20:51;100317.05;;;5.90;100.00
13367;BME280;6752;52.612;13.630;2023-11-21T02:25:54;100310.77;;;5.97;100.00
13367;BME280;6752;52.612;13.630;2023-11-21T02:30:56;100317.80;;;5.80;100.00
13367;BME280;6752;52.612;13.630;2023-11-21T02:35:59;100325.77;;;5.71;100.00
13367;BME280;6752;52.612;13.630;2023-11-21T02:41:01;100328.20;;;5.80;100.00
13367;BME280;6752;52.612;13.630;2023-11-21T02:46:03;100339.94;;;5.77;100.00
13367;BME280;6752;52.612;13.630;2023-11-21T02:51:06;100342.74;;;5.76;100.00
13367;BME280;6752;52.612;13.630;2023-11-21T02:56:08;100336.83;;;5.80;100.00
13367;BME280;6752;52.612;13.630;2023-11-21T03:01:10;100343.86;;;5.71;100.00
13367;BME280;6752;52.612;13.630;2023-11-21T03:06:13;100347.41;;;5.61;100.00
13367;BME280;6752;52.612;13.630;2023-11-21T03:11:15;100344.60;;;5.61;100.00
13367;BME280;6752;52.612;13.630;2023-11-21T03:16:18;100356.79;;;5.65;100.00
13367;BME280;6752;52.612;13.630;2023-11-21T03:21:20;100361.38;;;5.50;100.00
13367;BME280;6752;52.612;13.630;2023-11-21T03:26:22;100366.09;;;5.55;100.00
13367;BME280;6752;52.612;13.630;2023-11-21T03:31:25;100372.80;;;5.38;100.00
13367;BME280;6752;52.612;13.630;2023-11-21T03:36:27;100379.20;;;5.34;100.00
13367;BME280;6752;52.612;13.630;2023-11-21T03:41:30;100382.92;;;5.30;100.00
13367;BME280;6752;52.612;13.630;2023-11-21T03:46:33;100384.31;;;5.22;100.00
13367;BME280;6752;52.612;13.630;2023-11-21T03:51:35;100391.93;;;5.26;100.00
13367;BME280;6752;52.612;13.630;2023-11-21T03:56:37;100395.03;;;5.16;100.00
13367;BME280;6752;52.612;13.630;2023-11-21T04:01:40;100402.17;;;5.13;100.00
13367;BME280;6752;52.612;13.630;2023-11-21T04:06:42;100409.95;;;5.12;100.00
13367;BME280;6752;52.612;13.630;2023-11-21T04:11:44;100415.20;;;5.06;100.00
13367;BME280;6752;52.612;13.630;2023-11-21T04:16:47;100415.17;;;5.02;100.00
13367;BME280;6752;52.612;13.630;2023-11-21T04:21:49;100429.97;;;5.06;100.00
13367;BME280;6752;52.612;13.630;2023-11-21T04:26:51;100431.44;;;5.09;100.00
13367;BME280;6752;52.612;13.630;2023-11-21T04:31:54;100451.64;;;5.13;100.00
13367;BME280;6752;52.612;13.630;2023-11-21T04:36:56;100450.80;;;5.02;100.00
13367;BME280;6752;52.612;13.630;2023-11-21T04:41:58;100462.53;;;5.02;100.00
13367;BME280;6752;52.612;13.630;2023-11-21T04:47:01;100464.89;;;5.08;100.00
13367;BME280;6752;52.612;13.630;2023-11-21T04:52:07;100466.66;;;5.08;100.00
13367;BME280;6752;52.612;13.630;2023-11-21T04:57:05;100473.73;;;5.09;100.00
13367;BME280;6752;52.612;13.630;2023-11-21T05:02:08;100472.06;;;5.08;100.00
13367;BME280;6752;52.612;13.630;2023-11-21T05:07:10;100479.42;;;5.07;100.00
13367;BME280;6752;52.612;13.630;2023-11-21T05:12:13;100490.61;;;5.04;100.00
13367;BME280;6752;52.612;13.630;2023-11-21T05:17:15;100493.20;;;5.12;100.00
13367;BME280;6752;52.612;13.630;2023-11-21T05:22:17;100499.90;;;4.98;100.00
13367;BME280;6752;52.612;13.630;2023-11-21T05:27:20;100504.38;;;4.98;100.00
13367;BME280;6752;52.612;13.630;2023-11-21T05:32:23;100502.70;;;4.97;100.00
13367;BME280;6752;52.612;13.630;2023-11-21T05:37:24;100507.49;;;4.99;100.00
13367;BME280;6752;52.612;13.630;2023-11-21T05:42:27;100521.77;;;4.96;100.00
13367;BME280;6752;52.612;13.630;2023-11-21T05:47:29;100522.25;;;4.99;100.00
13367;BME280;6752;52.612;13.630;2023-11-21T05:52:31;100535.15;;;4.86;100.00
13367;BME280;6752;52.612;13.630;2023-11-21T05:57:34;100537.24;;;4.87;100.00
13367;BME280;6752;52.612;13.630;2023-11-21T06:02:40;100547.66;;;4.90;100.00
13367;BME280;6752;52.612;13.630;2023-11-21T06:07:38;100557.27;;;4.85;100.00
13367;BME280;6752;52.612;13.630;2023-11-21T06:12:41;100553.02;;;4.94;100.00
13367;BME280;6752;52.612;13.630;2023-11-21T06:17:43;100567.24;;;5.00;100.00
13367;BME280;6752;52.612;13.630;2023-11-21T06:22:47;100574.31;;;4.86;100.00
13367;BME280;6752;52.612;13.630;2023-11-21T06:27:48;100583.80;;;4.89;100.00
13367;BME280;6752;52.612;13.630;2023-11-21T06:32:50;100591.58;;;4.88;100.00
13367;BME280;6752;52.612;13.630;2023-11-21T06:37:53;100600.98;;;4.85;100.00
13367;BME280;6752;52.612;13.630;2023-11-21T06:42:55;100605.69;;;4.87;100.00
13367;BME280;6752;52.612;13.630;2023-11-21T06:47:57;100613.56;;;4.78;100.00
13367;BME280;6752;52.612;13.630;2023-11-21T06:53:00;100627.81;;;4.79;100.00
13367;BME280;6752;52.612;13.630;2023-11-21T06:58:02;100630.14;;;4.74;100.00
13367;BME280;6752;52.612;13.630;2023-11-21T07:03:04;100627.67;;;4.76;100.00
13367;BME280;6752;52.612;13.630;2023-11-21T07:08:07;100641.55;;;4.88;100.00
13367;BME280;6752;52.612;13.630;2023-11-21T07:13:09;100635.26;;;4.77;100.00
13367;BME280;6752;52.612;13.630;2023-11-21T07:18:11;100644.39;;;4.76;100.00
13367;BME280;6752;52.612;13.630;2023-11-21T07:23:14;100649.84;;;4.68;100.00
13367;BME280;6752;52.612;13.630;2023-11-21T07:28:19;100652.41;;;4.73;100.00
13367;BME280;6752;52.612;13.630;2023-11-21T07:33:21;100658.55;;;4.78;100.00
13367;BME280;6752;52.612;13.630;2023-11-21T07:38:24;100664.27;;;4.68;100.00
13367;BME280;6752;52.612;13.630;2023-11-21T07:43:26;100662.87;;;4.76;100.00
13367;BME280;6752;52.612;13.630;2023-11-21T07:48:29;100673.44;;;4.62;100.00
13367;BME280;6752;52.612;13.630;2023-11-21T07:53:31;100672.92;;;4.63;100.00
13367;BME280;6752;52.612;13.630;2023-11-21T07:58:33;100682.42;;;4.66;100.00
13367;BME280;6752;52.612;13.630;2023-11-21T08:03:35;100686.98;;;4.66;100.00
13367;BME280;6752;52.612;13.630;2023-11-21T08:08:38;100707.70;;;4.62;100.00
13367;BME280;6752;52.612;13.630;2023-11-21T08:13:40;100706.58;;;4.64;100.00
13367;BME280;6752;52.612;13.630;2023-11-21T08:18:43;100719.13;;;4.57;100.00
13367;BME280;6752;52.612;13.630;2023-11-21T08:23:45;100719.00;;;4.61;100.00
13367;BME280;6752;52.612;13.630;2023-11-21T08:28:47;100715.49;;;4.45;100.00
13367;BME280;6752;52.612;13.630;2023-11-21T08:33:50;100715.40;;;4.46;100.00
13367;BME280;6752;52.612;13.630;2023-11-21T08:38:52;100723.31;;;4.52;100.00
13367;BME280;6752;52.612;13.630;2023-11-21T08:43:54;100728.33;;;4.43;100.00
13367;BME280;6752;52.612;13.630;2023-11-21T08:48:57;100734.11;;;4.52;100.00
13367;BME280;6752;52.612;13.630;2023-11-21T08:53:59;100748.50;;;4.56;100.00
13367;BME280;6752;52.612;13.630;2023-11-21T08:59:01;100751.08;;;4.60;100.00
13367;BME280;6752;52.612;13.630;2023-11-21T09:04:04;100757.06;;;4.71;100.00
13367;BME280;6752;52.612;13.630;2023-11-21T09:09:06;100766.23;;;4.54;100.00
13367;BME280;6752;52.612;13.630;2023-11-21T09:14:09;100773.22;;;4.56;100.00
13367;BME280;6752;52.612;13.630;2023-11-21T09:19:11;100781.52;;;4.62;100.00
13367;BME280;6752;52.612;13.630;2023-11-21T09:24:13;100790.49;;;4.58;100.00
13367;BME280;6752;52.612;13.630;2023-11-21T09:29:16;100794.52;;;4.51;100.00
13367;BME280;6752;52.612;13.630;2023-11-21T09:34:18;100802.49;;;4.40;100.00
13367;BME280;6752;52.612;13.630;2023-11-21T09:39:20;100812.42;;;4.44;100.00
13367;BME280;6752;52.612;13.630;2023-11-21T09:44:26;100815.41;;;4.37;100.00
13367;BME280;6752;52.612;13.630;2023-11-21T09:49:25;100817.75;;;4.40;100.00
13367;BME280;6752;52.612;13.630;2023-11-21T09:54:27;100825.11;;;4.55;100.00
13367;BME280;6752;52.612;13.630;2023-11-21T09:59:30;100834.41;;;4.48;100.00
13367;BME280;6752;52.612;13.630;2023-11-21T10:04:32;100834.37;;;4.41;100.00
13367;BME280;6752;52.612;13.630;2023-11-21T10:09:36;100838.13;;;4.51;100.00
13367;BME280;6752;52.612;13.630;2023-11-21T10:14:37;100841.27;;;4.43;100.00
13367;BME280;6752;52.612;13.630;2023-11-21T10:19:39;100848.55;;;4.39;100.00
13367;BME280;6752;52.612;13.630;2023-11-21T10:24:42;100842.01;;;4.33;100.00
13367;BME280;6752;52.612;13.630;2023-11-21T10:29:44;100848.00;;;4.32;100.00
13367;BME280;6752;52.612;13.630;2023-11-21T10:34:56;100847.52;;;4.28;100.00
13367;BME280;6752;52.612;13.630;2023-11-21T10:39:49;100858.68;;;4.17;100.00
13367;BME280;6752;52.612;13.630;2023-11-21T10:44:51;100861.89;;;4.36;100.00
13367;BME280;6752;52.612;13.630;2023-11-21T10:49:53;100876.39;;;4.15;100.00
13367;BME280;6752;52.612;13.630;2023-11-21T10:54:56;100880.59;;;4.18;100.00
13367;BME280;6752;52.612;13.630;2023-11-21T10:59:58;100868.96;;;4.18;100.00
13367;BME280;6752;52.612;13.630;2023-11-21T11:05:00;100876.11;;;4.22;100.00
13367;BME280;6752;52.612;13.630;2023-11-21T11:10:03;100873.64;;;4.32;100.00
13367;BME280;6752;52.612;13.630;2023-11-21T11:15:06;100890.25;;;4.32;100.00
13367;BME280;6752;52.612;13.630;2023-11-21T11:20:09;100888.03;;;4.16;100.00
13367;BME280;6752;52.612;13.630;2023-11-21T11:30:45;100897.12;;;4.19;100.00
13367;BME280;6752;52.612;13.630;2023-11-21T11:40:54;100916.95;;;4.15;100.00
13367;BME280;6752;52.612;13.630;2023-11-21T11:45:59;100931.69;;;4.20;100.00
13367;BME280;6752;52.612;13.630;2023-11-21T11:51:04;100930.14;;;4.25;100.00
13367;BME280;6752;52.612;13.630;2023-11-21T11:56:29;100943.66;;;4.17;100.00
13367;BME280;6752;52.612;13.630;2023-11-21T12:01:32;100956.48;;;4.15;100.00
13367;BME280;6752;52.612;13.630;2023-11-21T12:06:33;100952.18;;;4.17;100.00
13367;BME280;6752;52.612;13.630;2023-11-21T12:11:36;100959.42;;;4.21;100.00
13367;BME280;6752;52.612;13.630;2023-11-21T12:16:38;100972.95;;;4.00;100.00
13367;BME280;6752;52.612;13.630;2023-11-21T12:21:40;100975.14;;;3.97;100.00
13367;BME280;6752;52.612;13.630;2023-11-21T12:26:42;100985.94;;;3.97;100.00
13367;BME280;6752;52.612;13.630;2023-11-21T12:31:45;100996.73;;;3.89;100.00
13367;BME280;6752;52.612;13.630;2023-11-21T12:36:47;100996.88;;;3.99;100.00
13367;BME280;6752;52.612;13.630;2023-11-21T12:41:50;101012.41;;;3.89;100.00
13367;BME280;6752;52.612;13.630;2023-11-21T12:46:52;100997.73;;;3.96;100.00
13367;BME280;6752;52.612;13.630;2023-11-21T12:51:54;101002.61;;;4.00;100.00
13367;BME280;6752;52.612;13.630;2023-11-21T12:56:59;101006.68;;;4.05;100.00
13367;BME280;6752;52.612;13.630;2023-11-21T13:01:59;101018.80;;;4.00;100.00
13367;BME280;6752;52.612;13.630;2023-11-21T13:07:04;101031.45;;;3.92;100.00
13367;BME280;6752;52.612;13.630;2023-11-21T13:12:09;101039.22;;;3.79;100.00
13367;BME280;6752;52.612;13.630;2023-11-21T13:17:12;101041.33;;;3.80;100.00
13367;BME280;6752;52.612;13.630;2023-11-21T13:22:14;101050.07;;;3.66;100.00
13367;BME280;6752;52.612;13.630;2023-11-21T13:27:16;101060.09;;;3.73;100.00
13367;BME280;6752;52.612;13.630;2023-11-21T13:32:19;101066.58;;;3.71;100.00
13367;BME280;6752;52.612;13.630;2023-11-21T13:37:21;101072.81;;;3.63;100.00
13367;BME280;6752;52.612;13.630;2023-11-21T13:42:23;101073.20;;;3.51;100.00
13367;BME280;6752;52.612;13.630;2023-11-21T13:47:26;101079.25;;;3.41;100.00
13367;BME280;6752;52.612;13.630;2023-11-21T13:52:28;101085.33;;;3.22;100.00
13367;BME280;6752;52.612;13.630;2023-11-21T13:57:30;101093.77;;;3.31;100.00
13367;BME280;6752;52.612;13.630;2023-11-21T14:02:33;101115.30;;;3.02;100.00
13367;BME280;6752;52.612;13.630;2023-11-21T14:07:35;101118.98;;;3.14;100.00
13367;BME280;6752;52.612;13.630;2023-11-21T14:12:38;101125.54;;;3.11;100.00
13367;BME280;6752;52.612;13.630;2023-11-21T14:17:40;101136.65;;;2.95;100.00
13367;BME280;6752;52.612;13.630;2023-11-21T14:22:42;101148.84;;;2.95;100.00
13367;BME280;6752;52.612;13.630;2023-11-21T14:27:45;101163.48;;;2.83;100.00
13367;BME280;6752;52.612;13.630;2023-11-21T14:32:47;101163.70;;;2.77;100.00
13367;BME280;6752;52.612;13.630;2023-11-21T14:37:49;101170.33;;;2.73;100.00
13367;BME280;6752;52.612;13.630;2023-11-21T14:42:52;101173.84;;;2.70;100.00
13367;BME280;6752;52.612;13.630;2023-11-21T14:47:54;101172.84;;;2.71;100.00
13367;BME280;6752;52.612;13.630;2023-11-21T14:53:02;101189.63;;;2.65;100.00
13367;BME280;6752;52.612;13.630;2023-11-21T14:58:05;101195.17;;;2.63;100.00
13367;BME280;6752;52.612;13.630;2023-11-21T15:03:07;101201.58;;;2.44;100.00
13367;BME280;6752;52.612;13.630;2023-11-21T15:08:09;101209.70;;;2.53;100.00
13367;BME280;6752;52.612;13.630;2023-11-21T15:13:20;101212.92;;;2.43;100.00
13367;BME280;6752;52.612;13.630;2023-11-21T15:18:23;101221.31;;;2.35;100.00
13367;BME280;6752;52.612;13.630;2023-11-21T15:23:25;101227.36;;;2.33;100.00
13367;BME280;6752;52.612;13.630;2023-11-21T15:28:27;101243.91;;;2.34;100.00
13367;BME280;6752;52.612;13.630;2023-11-21T15:33:30;101249.95;;;2.31;100.00
13367;BME280;6752;52.612;13.630;2023-11-21T15:38:32;101254.56;;;2.30;100.00
13367;BME280;6752;52.612;13.630;2023-11-21T15:43:35;101257.84;;;2.29;100.00
13367;BME280;6752;52.612;13.630;2023-11-21T15:48:37;101265.17;;;2.32;100.00
13367;BME280;6752;52.612;13.630;2023-11-21T15:53:40;101268.09;;;2.29;100.00
13367;BME280;6752;52.612;13.630;2023-11-21T15:58:42;101282.89;;;2.29;100.00
13367;BME280;6752;52.612;13.630;2023-11-21T16:03:44;101285.81;;;2.27;100.00
13367;BME280;6752;52.612;13.630;2023-11-21T16:08:47;101292.50;;;2.23;100.00
13367;BME280;6752;52.612;13.630;2023-11-21T16:13:49;101296.88;;;2.15;100.00
13367;BME280;6752;52.612;13.630;2023-11-21T16:18:52;101301.11;;;2.27;100.00
13367;BME280;6752;52.612;13.630;2023-11-21T16:23:54;101319.20;;;2.21;100.00
13367;BME280;6752;52.612;13.630;2023-11-21T16:28:56;101332.61;;;2.17;100.00
13367;BME280;6752;52.612;13.630;2023-11-21T16:33:59;101343.22;;;2.18;100.00
13367;BME280;6752;52.612;13.630;2023-11-21T16:39:01;101351.78;;;2.13;100.00
13367;BME280;6752;52.612;13.630;2023-11-21T16:44:04;101361.85;;;2.15;100.00
13367;BME280;6752;52.612;13.630;2023-11-21T16:49:07;101359.51;;;2.17;100.00
13367;BME280;6752;52.612;13.630;2023-11-21T16:54:09;101368.23;;;2.14;100.00
13367;BME280;6752;52.612;13.630;2023-11-21T16:59:11;101369.08;;;2.15;100.00
13367;BME280;6752;52.612;13.630;2023-11-21T17:04:14;101391.81;;;2.07;100.00
13367;BME280;6752;52.612;13.630;2023-11-21T17:09:16;101383.34;;;2.02;100.00
13367;BME280;6752;52.612;13.630;2023-11-21T17:14:21;101390.89;;;1.93;100.00
13367;BME280;6752;52.612;13.630;2023-11-21T17:19:24;101412.92;;;2.02;100.00
13367;BME280;6752;52.612;13.630;2023-11-21T17:24:26;101426.56;;;1.91;100.00
13367;BME280;6752;52.612;13.630;2023-11-21T17:29:28;101427.40;;;1.86;100.00
13367;BME280;6752;52.612;13.630;2023-11-21T17:34:31;101442.90;;;1.93;100.00
13367;BME280;6752;52.612;13.630;2023-11-21T17:39:33;101446.98;;;1.97;100.00
13367;BME280;6752;52.612;13.630;2023-11-21T17:44:36;101446.93;;;1.93;100.00
13367;BME280;6752;52.612;13.630;2023-11-21T17:49:38;101460.97;;;1.77;100.00
13367;BME280;6752;52.612;13.630;2023-11-21T17:54:40;101462.57;;;1.84;100.00
13367;BME280;6752;52.612;13.630;2023-11-21T17:59:42;101479.20;;;1.83;100.00
13367;BME280;6752;52.612;13.630;2023-11-21T18:04:45;101485.45;;;1.74;100.00
13367;BME280;6752;52.612;13.630;2023-11-21T18:09:47;101496.83;;;1.77;100.00
13367;BME280;6752;52.612;13.630;2023-11-21T18:14:54;101501.87;;;1.71;100.00
13367;BME280;6752;52.612;13.630;2023-11-21T18:19:52;101508.17;;;1.66;100.00
13367;BME280;6752;52.612;13.630;2023-11-21T18:24:54;101512.06;;;1.68;100.00
13367;BME280;6752;52.612;13.630;2023-11-21T18:29:57;101525.48;;;1.63;100.00
13367;BME280;6752;52.612;13.630;2023-11-21T18:35:01;101527.77;;;1.67;100.00
13367;BME280;6752;52.612;13.630;2023-11-21T18:40:04;101543.75;;;1.69;100.00
13367;BME280;6752;52.612;13.630;2023-11-21T18:45:06;101550.46;;;1.69;100.00
13367;BME280;6752;52.612;13.630;2023-11-21T18:50:08;101566.09;;;1.74;100.00
13367;BME280;6752;52.612;13.630;2023-11-21T18:55:11;101566.16;;;1.69;100.00
13367;BME280;6752;52.612;13.630;2023-11-21T19:00:13;101568.50;;;1.68;100.00
13367;BME280;6752;52.612;13.630;2023-11-21T19:05:16;101573.45;;;1.72;100.00
13367;BME280;6752;52.612;13.630;2023-11-21T19:10:18;101575.92;;;1.70;100.00
13367;BME280;6752;52.612;13.630;2023-11-21T19:15:20;101588.73;;;1.72;100.00
13367;BME280;6752;52.612;13.630;2023-11-21T19:20:23;101598.48;;;1.73;100.00
13367;BME280;6752;52.612;13.630;2023-11-21T19:25:25;101598.27;;;1.70;100.00
13367;BME280;6752;52.612;13.630;2023-11-21T19:30:27;101615.89;;;1.69;100.00
13367;BME280;6752;52.612;13.630;2023-11-21T19:35:30;101624.06;;;1.62;100.00
13367;BME280;6752;52.612;13.630;2023-11-21T19:40:32;101621.66;;;1.64;100.00
13367;BME280;6752;52.612;13.630;2023-11-21T19:45:34;101630.89;;;1.66;100.00
13367;BME280;6752;52.612;13.630;2023-11-21T19:50:37;101643.37;;;1.62;100.00
13367;BME280;6752;52.612;13.630;2023-11-21T19:55:39;101650.20;;;1.66;100.00
13367;BME280;6752;52.612;13.630;2023-11-21T20:00:41;101664.41;;;1.67;100.00
13367;BME280;6752;52.612;13.630;2023-11-21T20:05:44;101660.63;;;1.64;100.00
13367;BME280;6752;52.612;13.630;2023-11-21T20:10:46;101666.98;;;1.53;100.00
13367;BME280;6752;52.612;13.630;2023-11-21T20:15:49;101670.45;;;1.50;100.00
13367;BME280;6752;52.612;13.630;2023-11-21T20:20:51;101683.89;;;1.55;100.00
13367;BME280;6752;52.612;13.630;2023-11-21T20:25:53;101682.95;;;1.45;100.00
13367;BME280;6752;52.612;13.630;2023-11-21T20:30:56;101688.42;;;1.59;100.00
13367;BME280;6752;52.612;13.630;2023-11-21T20:35:58;101702.98;;;1.52;100.00
13367;BME280;6752;52.612;13.630;2023-11-21T20:41:00;101702.62;;;1.46;100.00
13367;BME280;6752;52.612;13.630;2023-11-21T20:46:03;101703.69;;;1.34;100.00
13367;BME280;6752;52.612;13.630;2023-11-21T20:51:05;101720.93;;;1.31;100.00
13367;BME280;6752;52.612;13.630;2023-11-21T20:56:07;101726.85;;;1.25;100.00
13367;BME280;6752;52.612;13.630;2023-11-21T21:01:10;101736.20;;;1.31;100.00
13367;BME280;6752;52.612;13.630;2023-11-21T21:06:12;101743.31;;;1.21;100.00
13367;BME280;6752;52.612;13.630;2023-11-21T21:11:17;101745.38;;;1.18;100.00
13367;BME280;6752;52.612;13.630;2023-11-21T21:16:20;101751.86;;;1.21;100.00
13367;BME280;6752;52.612;13.630;2023-11-21T21:21:31;101749.19;;;1.15;100.00
13367;BME280;6752;52.612;13.630;2023-11-21T21:26:30;101751.57;;;1.08;100.00
13367;BME280;6752;52.612;13.630;2023-11-21T21:31:32;101755.03;;;1.10;100.00
13367;BME280;6752;52.612;13.630;2023-11-21T21:36:35;101761.44;;;1.03;100.00
13367;BME280;6752;52.612;13.630;2023-11-21T21:41:37;101768.00;;;1.00;100.00
13367;BME280;6752;52.612;13.630;2023-11-21T21:46:39;101785.05;;;0.84;100.00
13367;BME280;6752;52.612;13.630;2023-11-21T21:51:42;101788.41;;;0.91;100.00
13367;BME280;6752;52.612;13.630;2023-11-21T21:56:44;101793.91;;;0.90;100.00
13367;BME280;6752;52.612;13.630;2023-11-21T22:01:46;101795.13;;;0.81;100.00
13367;BME280;6752;52.612;13.630;2023-11-21T22:06:49;101802.72;;;0.86;100.00
13367;BME280;6752;52.612;13.630;2023-11-21T22:11:51;101809.90;;;0.65;100.00
13367;BME280;6752;52.612;13.630;2023-11-21T22:16:53;101813.66;;;0.57;100.00
13367;BME280;6752;52.612;13.630;2023-11-21T22:21:56;101810.02;;;0.47;100.00
13367;BME280;6752;52.612;13.630;2023-11-21T22:26:58;101815.09;;;0.51;100.00
13367;BME280;6752;52.612;13.630;2023-11-21T22:32:01;101806.76;;;0.60;100.00
13367;BME280;6752;52.612;13.630;2023-11-21T22:37:03;101811.98;;;0.45;100.00
13367;BME280;6752;52.612;13.630;2023-11-21T22:42:05;101821.42;;;0.56;100.00
13367;BME280;6752;52.612;13.630;2023-11-21T22:47:08;101822.46;;;0.54;100.00
13367;BME280;6752;52.612;13.630;2023-11-21T22:52:10;101829.79;;;0.52;100.00
13367;BME280;6752;52.612;13.630;2023-11-21T22:57:12;101840.85;;;0.58;100.00
13367;BME280;6752;52.612;13.630;2023-11-21T23:02:15;101844.39;;;0.59;100.00
13367;BME280;6752;52.612;13.630;2023-11-21T23:07:17;101860.02;;;0.54;100.00
13367;BME280;6752;52.612;13.630;2023-11-21T23:12:19;101851.42;;;0.55;100.00
13367;BME280;6752;52.612;13.630;2023-11-21T23:17:22;101843.98;;;0.53;100.00
13367;BME280;6752;52.612;13.630;2023-11-21T23:22:24;101844.17;;;0.45;100.00
13367;BME280;6752;52.612;13.630;2023-11-21T23:27:27;101858.63;;;0.43;100.00
13367;BME280;6752;52.612;13.630;2023-11-21T23:32:29;101862.53;;;0.45;100.00
13367;BME280;6752;52.612;13.630;2023-11-21T23:37:31;101864.64;;;0.36;100.00
13367;BME280;6752;52.612;13.630;2023-11-21T23:42:34;101866.12;;;0.23;100.00
13367;BME280;6752;52.612;13.630;2023-11-21T23:47:36;101874.81;;;0.37;100.00
13367;BME280;6752;52.612;13.630;2023-11-21T23:52:38;101883.61;;;0.22;100.00
13367;BME280;6752;52.612;13.630;2023-11-21T23:57:41;101898.37;;;0.28;100.00
